Blankenberge, Belgium
Current Conditions -  °F | °C
As of 3:20 PM on Thursday 29 Jan 2015 (Local Time) from EBOS Reporting Station
Scattered Clouds Scattered Clouds  
Wind Chill:   Ceiling: Unl
Heat Index:   Visibility: 6mi
Dew Point:   Wind: 14mph
Humidity: 87%   Direction: 210°SSW
Pressure: 28.94"   Gusts: NA
Location:  51.31°N, 3.13°E
Report Text: EBOS 291420Z 21012KT 9999 FEW020 SCT036 05/03 Q0980 NOSIG
Loading
Personal Weather Stations






























Interactive Weather Map New forecast layout! Learn more

10-Day Weather Forecast

Advertisements
Track Severe Weather on mobile